Terminal Aerodrome Forecast
Issued by NWS Mt. Holly, NJ

Home | Current Version | Previous Version | Text Only | Print | Product List | Glossary On
Versions: 1 2 3 4 5 6 7 8 9 10 11 12 13 14 15
000
FTUS41 KPHI 011128
TAFILG
TAF
KILG 011128Z 0112/0212 VRB04KT 5SM BR SKC
     FM011300 35005KT P6SM FEW050
     FM012000 16004KT P6SM FEW250
     FM020400 VRB03KT P6SM SCT250=

USA.gov is the U.S. government's official web portal to all federal, state and local government web resources and services.